sensor_id;sensor_type;location;lat;lon;timestamp;P1;durP1;ratioP1;P2;durP2;ratioP2
19221;SDS011;9745;50.828;4.378;2022-10-15T00:00:28;27.07;;;19.03;;
19221;SDS011;9745;50.828;4.378;2022-10-15T00:02:54;33.80;;;21.80;;
19221;SDS011;9745;50.828;4.378;2022-10-15T00:05:20;33.90;;;21.47;;
19221;SDS011;9745;50.828;4.378;2022-10-15T00:07:46;30.20;;;20.17;;
19221;SDS011;9745;50.828;4.378;2022-10-15T00:10:12;27.90;;;19.33;;
19221;SDS011;9745;50.828;4.378;2022-10-15T00:12:38;26.23;;;19.50;;
19221;SDS011;9745;50.828;4.378;2022-10-15T00:15:05;30.77;;;20.00;;
19221;SDS011;9745;50.828;4.378;2022-10-15T00:17:31;26.23;;;19.53;;
19221;SDS011;9745;50.828;4.378;2022-10-15T00:19:57;31.20;;;20.33;;
19221;SDS011;9745;50.828;4.378;2022-10-15T00:22:23;25.63;;;18.23;;
19221;SDS011;9745;50.828;4.378;2022-10-15T00:24:49;27.03;;;18.47;;
19221;SDS011;9745;50.828;4.378;2022-10-15T00:27:15;26.23;;;16.90;;
19221;SDS011;9745;50.828;4.378;2022-10-15T00:29:41;23.97;;;17.93;;
19221;SDS011;9745;50.828;4.378;2022-10-15T00:32:07;24.80;;;16.90;;
19221;SDS011;9745;50.828;4.378;2022-10-15T00:34:33;23.77;;;16.80;;
19221;SDS011;9745;50.828;4.378;2022-10-15T00:37:00;21.73;;;16.20;;
19221;SDS011;9745;50.828;4.378;2022-10-15T00:39:26;22.20;;;16.43;;
19221;SDS011;9745;50.828;4.378;2022-10-15T00:41:52;25.60;;;17.10;;
19221;SDS011;9745;50.828;4.378;2022-10-15T00:46:56;25.70;;;18.30;;
19221;SDS011;9745;50.828;4.378;2022-10-15T00:51:57;22.07;;;15.90;;
19221;SDS011;9745;50.828;4.378;2022-10-15T00:54:24;22.43;;;16.03;;
19221;SDS011;9745;50.828;4.378;2022-10-15T00:56:50;23.03;;;15.90;;
19221;SDS011;9745;50.828;4.378;2022-10-15T00:59:17;23.70;;;15.77;;
19221;SDS011;9745;50.828;4.378;2022-10-15T01:01:43;24.63;;;15.67;;
19221;SDS011;9745;50.828;4.378;2022-10-15T01:04:09;28.07;;;17.13;;
19221;SDS011;9745;50.828;4.378;2022-10-15T01:06:36;22.07;;;15.40;;
19221;SDS011;9745;50.828;4.378;2022-10-15T01:09:02;23.23;;;16.07;;
19221;SDS011;9745;50.828;4.378;2022-10-15T01:16:57;26.27;;;15.43;;
19221;SDS011;9745;50.828;4.378;2022-10-15T01:22:17;21.60;;;15.60;;
19221;SDS011;9745;50.828;4.378;2022-10-15T01:27:46;24.93;;;16.50;;
19221;SDS011;9745;50.828;4.378;2022-10-15T01:30:13;24.43;;;16.07;;
19221;SDS011;9745;50.828;4.378;2022-10-15T01:32:43;20.47;;;14.90;;
19221;SDS011;9745;50.828;4.378;2022-10-15T01:37:38;25.53;;;16.77;;
19221;SDS011;9745;50.828;4.378;2022-10-15T01:40:07;23.50;;;15.87;;
19221;SDS011;9745;50.828;4.378;2022-10-15T01:45:27;23.30;;;14.80;;
19221;SDS011;9745;50.828;4.378;2022-10-15T01:47:55;21.77;;;15.47;;
19221;SDS011;9745;50.828;4.378;2022-10-15T01:50:24;23.27;;;16.37;;
19221;SDS011;9745;50.828;4.378;2022-10-15T01:52:51;22.10;;;14.93;;
19221;SDS011;9745;50.828;4.378;2022-10-15T01:55:19;23.77;;;16.23;;
19221;SDS011;9745;50.828;4.378;2022-10-15T01:57:47;22.60;;;15.57;;
19221;SDS011;9745;50.828;4.378;2022-10-15T02:00:13;25.63;;;16.50;;
19221;SDS011;9745;50.828;4.378;2022-10-15T02:02:39;28.80;;;18.00;;
19221;SDS011;9745;50.828;4.378;2022-10-15T02:05:05;28.17;;;17.10;;
19221;SDS011;9745;50.828;4.378;2022-10-15T02:13:03;28.80;;;17.83;;
19221;SDS011;9745;50.828;4.378;2022-10-15T02:18:49;28.90;;;18.43;;
19221;SDS011;9745;50.828;4.378;2022-10-15T02:20:55;33.23;;;19.93;;
19221;SDS011;9745;50.828;4.378;2022-10-15T02:25:48;29.23;;;18.93;;
19221;SDS011;9745;50.828;4.378;2022-10-15T02:28:15;33.20;;;18.23;;
19221;SDS011;9745;50.828;4.378;2022-10-15T02:30:42;29.07;;;18.83;;
19221;SDS011;9745;50.828;4.378;2022-10-15T02:33:09;27.43;;;17.63;;
19221;SDS011;9745;50.828;4.378;2022-10-15T02:35:36;26.33;;;17.27;;
19221;SDS011;9745;50.828;4.378;2022-10-15T02:38:04;29.33;;;18.23;;
19221;SDS011;9745;50.828;4.378;2022-10-15T02:40:31;28.53;;;17.83;;
19221;SDS011;9745;50.828;4.378;2022-10-15T02:42:58;25.23;;;16.90;;
19221;SDS011;9745;50.828;4.378;2022-10-15T02:45:24;25.97;;;16.67;;
19221;SDS011;9745;50.828;4.378;2022-10-15T02:47:50;26.40;;;17.43;;
19221;SDS011;9745;50.828;4.378;2022-10-15T02:50:16;23.23;;;16.10;;
19221;SDS011;9745;50.828;4.378;2022-10-15T02:52:42;25.17;;;16.47;;
19221;SDS011;9745;50.828;4.378;2022-10-15T02:55:08;24.40;;;17.07;;
19221;SDS011;9745;50.828;4.378;2022-10-15T02:57:34;26.17;;;17.30;;
19221;SDS011;9745;50.828;4.378;2022-10-15T03:00:00;25.33;;;16.77;;
19221;SDS011;9745;50.828;4.378;2022-10-15T03:02:26;27.03;;;17.20;;
19221;SDS011;9745;50.828;4.378;2022-10-15T03:04:52;25.07;;;16.13;;
19221;SDS011;9745;50.828;4.378;2022-10-15T03:07:18;23.20;;;16.03;;
19221;SDS011;9745;50.828;4.378;2022-10-15T03:09:44;24.77;;;16.70;;
19221;SDS011;9745;50.828;4.378;2022-10-15T03:12:10;22.37;;;15.53;;
19221;SDS011;9745;50.828;4.378;2022-10-15T03:14:36;18.97;;;14.70;;
19221;SDS011;9745;50.828;4.378;2022-10-15T03:17:02;21.83;;;15.70;;
19221;SDS011;9745;50.828;4.378;2022-10-15T03:19:28;21.80;;;15.87;;
19221;SDS011;9745;50.828;4.378;2022-10-15T03:21:54;29.03;;;17.10;;
19221;SDS011;9745;50.828;4.378;2022-10-15T03:24:20;20.13;;;15.27;;
19221;SDS011;9745;50.828;4.378;2022-10-15T03:26:46;28.90;;;16.30;;
19221;SDS011;9745;50.828;4.378;2022-10-15T03:29:12;24.53;;;16.13;;
19221;SDS011;9745;50.828;4.378;2022-10-15T03:31:38;21.50;;;15.73;;
19221;SDS011;9745;50.828;4.378;2022-10-15T03:34:04;24.47;;;16.53;;
19221;SDS011;9745;50.828;4.378;2022-10-15T03:36:30;26.23;;;17.27;;
19221;SDS011;9745;50.828;4.378;2022-10-15T03:38:56;29.27;;;18.43;;
19221;SDS011;9745;50.828;4.378;2022-10-15T03:41:22;30.83;;;19.53;;
19221;SDS011;9745;50.828;4.378;2022-10-15T03:43:49;27.60;;;19.00;;
19221;SDS011;9745;50.828;4.378;2022-10-15T03:46:15;30.53;;;18.93;;
19221;SDS011;9745;50.828;4.378;2022-10-15T03:48:41;29.90;;;19.10;;
19221;SDS011;9745;50.828;4.378;2022-10-15T03:51:07;27.97;;;19.20;;
19221;SDS011;9745;50.828;4.378;2022-10-15T03:53:33;26.37;;;17.67;;
19221;SDS011;9745;50.828;4.378;2022-10-15T03:56:03;29.67;;;17.57;;
19221;SDS011;9745;50.828;4.378;2022-10-15T03:58:29;30.63;;;17.53;;
19221;SDS011;9745;50.828;4.378;2022-10-15T04:00:55;22.43;;;16.10;;
19221;SDS011;9745;50.828;4.378;2022-10-15T04:03:21;24.37;;;15.87;;
19221;SDS011;9745;50.828;4.378;2022-10-15T04:05:50;24.57;;;15.27;;
19221;SDS011;9745;50.828;4.378;2022-10-15T04:08:16;21.37;;;14.43;;
19221;SDS011;9745;50.828;4.378;2022-10-15T04:10:43;24.83;;;14.07;;
19221;SDS011;9745;50.828;4.378;2022-10-15T04:13:09;20.07;;;13.67;;
19221;SDS011;9745;50.828;4.378;2022-10-15T04:15:37;22.50;;;13.63;;
19221;SDS011;9745;50.828;4.378;2022-10-15T04:18:03;20.30;;;13.90;;
19221;SDS011;9745;50.828;4.378;2022-10-15T04:20:29;19.87;;;14.10;;
19221;SDS011;9745;50.828;4.378;2022-10-15T04:22:55;18.47;;;12.33;;
19221;SDS011;9745;50.828;4.378;2022-10-15T04:25:21;21.63;;;13.03;;
19221;SDS011;9745;50.828;4.378;2022-10-15T04:27:47;19.40;;;13.10;;
19221;SDS011;9745;50.828;4.378;2022-10-15T04:30:13;20.10;;;12.10;;
19221;SDS011;9745;50.828;4.378;2022-10-15T04:32:39;18.10;;;12.50;;
19221;SDS011;9745;50.828;4.378;2022-10-15T04:35:05;19.20;;;11.73;;
19221;SDS011;9745;50.828;4.378;2022-10-15T04:37:32;20.40;;;11.87;;
19221;SDS011;9745;50.828;4.378;2022-10-15T04:39:58;18.90;;;11.27;;
19221;SDS011;9745;50.828;4.378;2022-10-15T04:42:24;19.20;;;11.23;;
19221;SDS011;9745;50.828;4.378;2022-10-15T04:44:50;19.30;;;11.50;;
19221;SDS011;9745;50.828;4.378;2022-10-15T04:47:16;18.00;;;11.03;;
19221;SDS011;9745;50.828;4.378;2022-10-15T04:49:42;20.43;;;11.47;;
19221;SDS011;9745;50.828;4.378;2022-10-15T04:52:08;17.87;;;11.33;;
19221;SDS011;9745;50.828;4.378;2022-10-15T04:54:34;18.93;;;10.70;;
19221;SDS011;9745;50.828;4.378;2022-10-15T04:57:00;18.37;;;10.77;;
19221;SDS011;9745;50.828;4.378;2022-10-15T04:59:26;21.03;;;11.50;;
19221;SDS011;9745;50.828;4.378;2022-10-15T05:01:52;18.70;;;10.50;;
19221;SDS011;9745;50.828;4.378;2022-10-15T05:04:18;17.27;;;10.97;;
19221;SDS011;9745;50.828;4.378;2022-10-15T05:06:43;16.10;;;9.93;;
19221;SDS011;9745;50.828;4.378;2022-10-15T05:09:09;14.70;;;9.90;;
19221;SDS011;9745;50.828;4.378;2022-10-15T05:11:36;16.53;;;9.50;;
19221;SDS011;9745;50.828;4.378;2022-10-15T05:14:02;15.83;;;9.50;;
19221;SDS011;9745;50.828;4.378;2022-10-15T05:16:28;17.30;;;9.43;;
19221;SDS011;9745;50.828;4.378;2022-10-15T05:18:58;13.00;;;7.87;;
19221;SDS011;9745;50.828;4.378;2022-10-15T05:21:24;14.30;;;9.20;;
19221;SDS011;9745;50.828;4.378;2022-10-15T05:23:50;13.00;;;8.50;;
19221;SDS011;9745;50.828;4.378;2022-10-15T05:26:18;12.30;;;8.33;;
19221;SDS011;9745;50.828;4.378;2022-10-15T05:28:44;15.07;;;9.00;;
19221;SDS011;9745;50.828;4.378;2022-10-15T05:31:11;15.47;;;8.47;;
19221;SDS011;9745;50.828;4.378;2022-10-15T05:33:37;11.30;;;8.07;;
19221;SDS011;9745;50.828;4.378;2022-10-15T05:36:07;11.67;;;7.77;;
19221;SDS011;9745;50.828;4.378;2022-10-15T05:38:33;11.03;;;7.07;;
19221;SDS011;9745;50.828;4.378;2022-10-15T05:40:59;11.30;;;7.20;;
19221;SDS011;9745;50.828;4.378;2022-10-15T05:43:25;11.97;;;6.70;;
19221;SDS011;9745;50.828;4.378;2022-10-15T05:45:54;14.23;;;7.50;;
19221;SDS011;9745;50.828;4.378;2022-10-15T05:48:20;11.57;;;7.33;;
19221;SDS011;9745;50.828;4.378;2022-10-15T05:50:46;11.40;;;6.73;;
19221;SDS011;9745;50.828;4.378;2022-10-15T05:53:12;13.60;;;7.27;;
19221;SDS011;9745;50.828;4.378;2022-10-15T05:55:39;11.37;;;6.97;;
19221;SDS011;9745;50.828;4.378;2022-10-15T05:58:05;11.43;;;7.07;;
19221;SDS011;9745;50.828;4.378;2022-10-15T06:00:31;12.50;;;7.00;;
19221;SDS011;9745;50.828;4.378;2022-10-15T06:02:57;9.83;;;6.27;;
19221;SDS011;9745;50.828;4.378;2022-10-15T06:05:23;9.60;;;6.00;;
19221;SDS011;9745;50.828;4.378;2022-10-15T06:07:50;10.30;;;5.80;;
19221;SDS011;9745;50.828;4.378;2022-10-15T06:10:16;12.80;;;6.30;;
19221;SDS011;9745;50.828;4.378;2022-10-15T06:12:42;8.93;;;5.70;;
19221;SDS011;9745;50.828;4.378;2022-10-15T06:15:13;10.77;;;5.73;;
19221;SDS011;9745;50.828;4.378;2022-10-15T06:17:39;9.00;;;5.63;;
19221;SDS011;9745;50.828;4.378;2022-10-15T06:20:05;11.47;;;5.60;;
19221;SDS011;9745;50.828;4.378;2022-10-15T06:22:31;7.63;;;5.20;;
19221;SDS011;9745;50.828;4.378;2022-10-15T06:24:57;10.17;;;5.87;;
19221;SDS011;9745;50.828;4.378;2022-10-15T06:27:23;10.77;;;6.07;;
19221;SDS011;9745;50.828;4.378;2022-10-15T06:29:49;8.07;;;5.77;;
19221;SDS011;9745;50.828;4.378;2022-10-15T06:32:15;9.90;;;5.60;;
19221;SDS011;9745;50.828;4.378;2022-10-15T06:34:42;8.93;;;5.50;;
19221;SDS011;9745;50.828;4.378;2022-10-15T06:37:08;9.23;;;5.70;;
19221;SDS011;9745;50.828;4.378;2022-10-15T06:39:34;8.63;;;5.27;;
19221;SDS011;9745;50.828;4.378;2022-10-15T06:42:00;10.20;;;5.90;;
19221;SDS011;9745;50.828;4.378;2022-10-15T06:44:26;9.40;;;6.20;;
19221;SDS011;9745;50.828;4.378;2022-10-15T06:46:52;10.53;;;5.80;;
19221;SDS011;9745;50.828;4.378;2022-10-15T06:49:18;8.00;;;5.93;;
19221;SDS011;9745;50.828;4.378;2022-10-15T06:51:44;11.17;;;5.53;;
19221;SDS011;9745;50.828;4.378;2022-10-15T06:54:10;7.60;;;4.97;;
19221;SDS011;9745;50.828;4.378;2022-10-15T06:56:36;8.17;;;5.73;;
19221;SDS011;9745;50.828;4.378;2022-10-15T06:59:02;7.73;;;4.73;;
19221;SDS011;9745;50.828;4.378;2022-10-15T07:01:29;13.07;;;5.67;;
19221;SDS011;9745;50.828;4.378;2022-10-15T07:03:55;8.33;;;5.20;;
19221;SDS011;9745;50.828;4.378;2022-10-15T07:06:21;8.27;;;5.33;;
19221;SDS011;9745;50.828;4.378;2022-10-15T07:08:47;8.77;;;5.07;;
19221;SDS011;9745;50.828;4.378;2022-10-15T07:11:13;7.77;;;4.77;;
19221;SDS011;9745;50.828;4.378;2022-10-15T07:13:39;9.83;;;5.60;;
19221;SDS011;9745;50.828;4.378;2022-10-15T07:16:08;7.17;;;4.83;;
19221;SDS011;9745;50.828;4.378;2022-10-15T07:18:34;8.40;;;4.83;;
19221;SDS011;9745;50.828;4.378;2022-10-15T07:21:00;11.97;;;5.50;;
19221;SDS011;9745;50.828;4.378;2022-10-15T07:23:26;7.97;;;5.40;;
19221;SDS011;9745;50.828;4.378;2022-10-15T07:25:53;8.20;;;5.43;;
19221;SDS011;9745;50.828;4.378;2022-10-15T07:28:19;8.37;;;4.80;;
19221;SDS011;9745;50.828;4.378;2022-10-15T07:30:45;7.33;;;4.53;;
19221;SDS011;9745;50.828;4.378;2022-10-15T07:33:11;10.40;;;4.77;;
19221;SDS011;9745;50.828;4.378;2022-10-15T07:35:37;4.83;;;3.83;;
19221;SDS011;9745;50.828;4.378;2022-10-15T07:38:03;6.87;;;4.33;;
19221;SDS011;9745;50.828;4.378;2022-10-15T07:40:29;5.90;;;3.93;;
19221;SDS011;9745;50.828;4.378;2022-10-15T07:42:56;6.50;;;3.87;;
19221;SDS011;9745;50.828;4.378;2022-10-15T07:45:22;5.23;;;3.80;;
19221;SDS011;9745;50.828;4.378;2022-10-15T07:47:48;7.87;;;4.00;;
19221;SDS011;9745;50.828;4.378;2022-10-15T07:50:14;8.70;;;4.20;;
19221;SDS011;9745;50.828;4.378;2022-10-15T07:52:40;7.40;;;4.00;;
19221;SDS011;9745;50.828;4.378;2022-10-15T07:55:06;6.43;;;3.53;;
19221;SDS011;9745;50.828;4.378;2022-10-15T07:57:33;4.97;;;3.30;;
19221;SDS011;9745;50.828;4.378;2022-10-15T07:59:59;4.43;;;3.50;;
19221;SDS011;9745;50.828;4.378;2022-10-15T08:02:25;4.43;;;3.50;;
19221;SDS011;9745;50.828;4.378;2022-10-15T08:04:51;6.23;;;2.80;;
19221;SDS011;9745;50.828;4.378;2022-10-15T08:07:17;8.50;;;3.10;;
19221;SDS011;9745;50.828;4.378;2022-10-15T08:09:43;5.33;;;2.73;;
19221;SDS011;9745;50.828;4.378;2022-10-15T08:12:09;2.97;;;2.37;;
19221;SDS011;9745;50.828;4.378;2022-10-15T08:14:35;3.57;;;2.13;;
19221;SDS011;9745;50.828;4.378;2022-10-15T08:17:01;3.50;;;2.20;;
19221;SDS011;9745;50.828;4.378;2022-10-15T08:19:28;3.67;;;2.47;;
19221;SDS011;9745;50.828;4.378;2022-10-15T08:21:54;4.30;;;2.10;;
19221;SDS011;9745;50.828;4.378;2022-10-15T08:24:20;3.40;;;1.67;;
19221;SDS011;9745;50.828;4.378;2022-10-15T08:26:46;2.73;;;1.80;;
19221;SDS011;9745;50.828;4.378;2022-10-15T08:29:13;4.83;;;2.17;;
19221;SDS011;9745;50.828;4.378;2022-10-15T08:31:39;4.17;;;1.53;;
19221;SDS011;9745;50.828;4.378;2022-10-15T08:34:05;4.30;;;2.70;;
19221;SDS011;9745;50.828;4.378;2022-10-15T08:36:31;3.43;;;1.47;;
19221;SDS011;9745;50.828;4.378;2022-10-15T08:38:57;2.67;;;1.30;;
19221;SDS011;9745;50.828;4.378;2022-10-15T08:43:49;2.23;;;1.17;;
19221;SDS011;9745;50.828;4.378;2022-10-15T08:46:21;2.03;;;1.00;;
19221;SDS011;9745;50.828;4.378;2022-10-15T08:48:49;1.60;;;1.10;;
19221;SDS011;9745;50.828;4.378;2022-10-15T08:51:17;2.13;;;1.00;;
19221;SDS011;9745;50.828;4.378;2022-10-15T08:53:55;2.97;;;1.00;;
19221;SDS011;9745;50.828;4.378;2022-10-15T08:56:38;1.40;;;0.90;;
19221;SDS011;9745;50.828;4.378;2022-10-15T09:01:51;2.80;;;1.30;;
19221;SDS011;9745;50.828;4.378;2022-10-15T09:04:29;2.07;;;0.70;;
19221;SDS011;9745;50.828;4.378;2022-10-15T09:07:06;1.23;;;0.83;;
19221;SDS011;9745;50.828;4.378;2022-10-15T09:14:50;1.30;;;0.60;;
19221;SDS011;9745;50.828;4.378;2022-10-15T09:17:19;1.00;;;0.60;;
19221;SDS011;9745;50.828;4.378;2022-10-15T09:19:48;1.00;;;0.70;;
19221;SDS011;9745;50.828;4.378;2022-10-15T09:22:16;1.13;;;0.80;;
19221;SDS011;9745;50.828;4.378;2022-10-15T09:24:42;3.70;;;0.70;;
19221;SDS011;9745;50.828;4.378;2022-10-15T09:27:11;1.97;;;0.70;;
19221;SDS011;9745;50.828;4.378;2022-10-15T09:29:40;1.10;;;0.70;;
19221;SDS011;9745;50.828;4.378;2022-10-15T09:34:44;1.37;;;0.67;;
19221;SDS011;9745;50.828;4.378;2022-10-15T09:37:17;0.70;;;0.60;;
19221;SDS011;9745;50.828;4.378;2022-10-15T09:39:52;0.60;;;0.57;;
19221;SDS011;9745;50.828;4.378;2022-10-15T09:42:28;1.30;;;0.80;;
19221;SDS011;9745;50.828;4.378;2022-10-15T09:44:55;1.80;;;1.13;;
19221;SDS011;9745;50.828;4.378;2022-10-15T09:47:29;2.00;;;1.40;;
19221;SDS011;9745;50.828;4.378;2022-10-15T09:49:55;1.27;;;0.90;;
19221;SDS011;9745;50.828;4.378;2022-10-15T09:55:09;1.60;;;0.73;;
19221;SDS011;9745;50.828;4.378;2022-10-15T09:57:41;2.33;;;0.93;;
19221;SDS011;9745;50.828;4.378;2022-10-15T10:00:10;2.10;;;0.70;;
19221;SDS011;9745;50.828;4.378;2022-10-15T10:02:37;1.00;;;0.90;;
19221;SDS011;9745;50.828;4.378;2022-10-15T10:07:48;0.80;;;0.70;;
19221;SDS011;9745;50.828;4.378;2022-10-15T10:10:27;2.27;;;0.80;;
19221;SDS011;9745;50.828;4.378;2022-10-15T10:12:54;4.07;;;1.10;;
19221;SDS011;9745;50.828;4.378;2022-10-15T10:17:51;3.60;;;1.60;;
19221;SDS011;9745;50.828;4.378;2022-10-15T10:20:18;7.43;;;1.83;;
19221;SDS011;9745;50.828;4.378;2022-10-15T10:27:53;2.40;;;0.97;;
19221;SDS011;9745;50.828;4.378;2022-10-15T10:30:19;4.17;;;0.90;;
19221;SDS011;9745;50.828;4.378;2022-10-15T10:32:45;2.63;;;1.00;;
19221;SDS011;9745;50.828;4.378;2022-10-15T10:35:22;2.13;;;1.10;;
19221;SDS011;9745;50.828;4.378;2022-10-15T10:37:48;2.07;;;1.00;;
19221;SDS011;9745;50.828;4.378;2022-10-15T10:40:28;1.33;;;0.87;;
19221;SDS011;9745;50.828;4.378;2022-10-15T10:43:11;2.00;;;0.80;;
19221;SDS011;9745;50.828;4.378;2022-10-15T10:45:57;1.07;;;0.90;;
19221;SDS011;9745;50.828;4.378;2022-10-15T10:48:24;3.17;;;1.60;;
19221;SDS011;9745;50.828;4.378;2022-10-15T10:51:01;2.33;;;1.20;;
19221;SDS011;9745;50.828;4.378;2022-10-15T10:53:28;1.60;;;0.90;;
19221;SDS011;9745;50.828;4.378;2022-10-15T10:55:54;4.27;;;2.17;;
19221;SDS011;9745;50.828;4.378;2022-10-15T10:58:21;2.50;;;1.00;;
19221;SDS011;9745;50.828;4.378;2022-10-15T11:00:49;2.10;;;1.20;;
19221;SDS011;9745;50.828;4.378;2022-10-15T11:03:21;1.63;;;0.73;;
19221;SDS011;9745;50.828;4.378;2022-10-15T11:05:48;1.83;;;1.00;;
19221;SDS011;9745;50.828;4.378;2022-10-15T11:11:05;2.60;;;0.90;;
19221;SDS011;9745;50.828;4.378;2022-10-15T11:13:38;0.80;;;0.67;;
19221;SDS011;9745;50.828;4.378;2022-10-15T11:16:07;1.43;;;0.90;;
19221;SDS011;9745;50.828;4.378;2022-10-15T11:21:23;2.03;;;0.90;;
19221;SDS011;9745;50.828;4.378;2022-10-15T11:26:27;1.53;;;0.67;;
19221;SDS011;9745;50.828;4.378;2022-10-15T11:29:03;1.03;;;0.93;;
19221;SDS011;9745;50.828;4.378;2022-10-15T11:36:41;1.53;;;1.10;;
19221;SDS011;9745;50.828;4.378;2022-10-15T11:41:54;3.07;;;1.00;;
19221;SDS011;9745;50.828;4.378;2022-10-15T11:49:39;1.37;;;1.00;;
19221;SDS011;9745;50.828;4.378;2022-10-15T11:52:12;1.40;;;0.90;;
19221;SDS011;9745;50.828;4.378;2022-10-15T11:54:59;1.70;;;0.97;;
19221;SDS011;9745;50.828;4.378;2022-10-15T11:57:27;1.37;;;0.80;;
19221;SDS011;9745;50.828;4.378;2022-10-15T11:59:59;1.00;;;0.90;;
19221;SDS011;9745;50.828;4.378;2022-10-15T12:02:30;1.20;;;0.90;;
19221;SDS011;9745;50.828;4.378;2022-10-15T12:04:59;0.97;;;0.70;;
19221;SDS011;9745;50.828;4.378;2022-10-15T12:07:30;1.87;;;0.80;;
19221;SDS011;9745;50.828;4.378;2022-10-15T12:10:05;1.77;;;0.90;;
19221;SDS011;9745;50.828;4.378;2022-10-15T12:12:52;6.03;;;1.13;;
19221;SDS011;9745;50.828;4.378;2022-10-15T12:18:22;1.37;;;0.93;;
19221;SDS011;9745;50.828;4.378;2022-10-15T12:20:50;1.37;;;0.90;;
19221;SDS011;9745;50.828;4.378;2022-10-15T12:23:21;1.67;;;1.03;;
19221;SDS011;9745;50.828;4.378;2022-10-15T12:25:47;3.37;;;1.33;;
19221;SDS011;9745;50.828;4.378;2022-10-15T12:28:18;1.93;;;1.13;;
19221;SDS011;9745;50.828;4.378;2022-10-15T12:30:55;1.80;;;0.70;;
19221;SDS011;9745;50.828;4.378;2022-10-15T12:33:28;1.13;;;0.70;;
19221;SDS011;9745;50.828;4.378;2022-10-15T12:35:57;2.03;;;0.67;;
19221;SDS011;9745;50.828;4.378;2022-10-15T12:38:25;1.13;;;0.67;;
19221;SDS011;9745;50.828;4.378;2022-10-15T12:41:08;4.07;;;0.90;;
19221;SDS011;9745;50.828;4.378;2022-10-15T12:43:42;2.10;;;0.87;;
19221;SDS011;9745;50.828;4.378;2022-10-15T12:46:09;2.10;;;0.60;;
19221;SDS011;9745;50.828;4.378;2022-10-15T12:48:36;2.20;;;0.57;;
19221;SDS011;9745;50.828;4.378;2022-10-15T12:53:42;1.50;;;0.60;;
19221;SDS011;9745;50.828;4.378;2022-10-15T12:58:38;1.17;;;0.70;;
19221;SDS011;9745;50.828;4.378;2022-10-15T13:01:05;1.93;;;0.73;;
19221;SDS011;9745;50.828;4.378;2022-10-15T13:08:46;4.57;;;1.67;;
19221;SDS011;9745;50.828;4.378;2022-10-15T13:11:29;0.53;;;0.40;;
19221;SDS011;9745;50.828;4.378;2022-10-15T13:13:57;2.43;;;0.60;;
19221;SDS011;9745;50.828;4.378;2022-10-15T13:16:24;4.07;;;1.00;;
19221;SDS011;9745;50.828;4.378;2022-10-15T13:18:51;1.60;;;0.70;;
19221;SDS011;9745;50.828;4.378;2022-10-15T13:21:17;4.83;;;0.73;;
19221;SDS011;9745;50.828;4.378;2022-10-15T13:23:47;1.20;;;0.60;;
19221;SDS011;9745;50.828;4.378;2022-10-15T13:26:20;1.53;;;0.80;;
19221;SDS011;9745;50.828;4.378;2022-10-15T13:28:47;5.67;;;0.90;;
19221;SDS011;9745;50.828;4.378;2022-10-15T13:31:17;1.40;;;0.60;;
19221;SDS011;9745;50.828;4.378;2022-10-15T13:33:45;4.40;;;0.70;;
19221;SDS011;9745;50.828;4.378;2022-10-15T13:36:15;5.47;;;0.80;;
19221;SDS011;9745;50.828;4.378;2022-10-15T13:38:43;3.97;;;2.03;;
19221;SDS011;9745;50.828;4.378;2022-10-15T13:41:15;2.77;;;0.60;;
19221;SDS011;9745;50.828;4.378;2022-10-15T13:43:50;1.13;;;0.70;;
19221;SDS011;9745;50.828;4.378;2022-10-15T13:46:18;2.63;;;0.90;;
19221;SDS011;9745;50.828;4.378;2022-10-15T13:48:44;2.80;;;0.97;;
19221;SDS011;9745;50.828;4.378;2022-10-15T13:51:10;3.67;;;0.90;;
19221;SDS011;9745;50.828;4.378;2022-10-15T13:53:40;1.67;;;0.80;;
19221;SDS011;9745;50.828;4.378;2022-10-15T13:56:22;2.17;;;1.00;;
19221;SDS011;9745;50.828;4.378;2022-10-15T13:58:49;2.93;;;0.80;;
19221;SDS011;9745;50.828;4.378;2022-10-15T14:01:16;2.43;;;0.60;;
19221;SDS011;9745;50.828;4.378;2022-10-15T14:06:26;3.77;;;0.90;;
19221;SDS011;9745;50.828;4.378;2022-10-15T14:08:57;3.97;;;0.73;;
19221;SDS011;9745;50.828;4.378;2022-10-15T14:11:23;4.63;;;0.90;;
19221;SDS011;9745;50.828;4.378;2022-10-15T14:13:51;3.70;;;0.93;;
19221;SDS011;9745;50.828;4.378;2022-10-15T14:18:50;3.63;;;0.77;;
19221;SDS011;9745;50.828;4.378;2022-10-15T14:21:18;2.67;;;0.80;;
19221;SDS011;9745;50.828;4.378;2022-10-15T14:23:44;2.47;;;0.70;;
19221;SDS011;9745;50.828;4.378;2022-10-15T14:26:11;3.97;;;0.90;;
19221;SDS011;9745;50.828;4.378;2022-10-15T14:28:38;4.43;;;1.10;;
19221;SDS011;9745;50.828;4.378;2022-10-15T14:31:05;2.70;;;0.70;;
19221;SDS011;9745;50.828;4.378;2022-10-15T14:33:32;2.80;;;0.63;;
19221;SDS011;9745;50.828;4.378;2022-10-15T14:36:06;2.80;;;0.87;;
19221;SDS011;9745;50.828;4.378;2022-10-15T14:38:32;2.20;;;0.80;;
19221;SDS011;9745;50.828;4.378;2022-10-15T14:40:59;3.03;;;0.73;;
19221;SDS011;9745;50.828;4.378;2022-10-15T14:43:31;2.60;;;0.70;;
19221;SDS011;9745;50.828;4.378;2022-10-15T14:45:58;3.63;;;0.70;;
19221;SDS011;9745;50.828;4.378;2022-10-15T14:48:45;3.33;;;0.80;;
19221;SDS011;9745;50.828;4.378;2022-10-15T14:51:19;4.50;;;0.87;;
19221;SDS011;9745;50.828;4.378;2022-10-15T14:53:47;2.50;;;0.60;;
19221;SDS011;9745;50.828;4.378;2022-10-15T14:56:19;3.80;;;0.53;;
19221;SDS011;9745;50.828;4.378;2022-10-15T14:58:46;3.37;;;0.80;;
19221;SDS011;9745;50.828;4.378;2022-10-15T15:01:16;4.27;;;0.70;;
19221;SDS011;9745;50.828;4.378;2022-10-15T15:03:44;2.63;;;0.90;;
19221;SDS011;9745;50.828;4.378;2022-10-15T15:06:11;6.17;;;0.90;;
19221;SDS011;9745;50.828;4.378;2022-10-15T15:08:38;4.70;;;1.00;;
19221;SDS011;9745;50.828;4.378;2022-10-15T15:11:04;2.03;;;0.70;;
19221;SDS011;9745;50.828;4.378;2022-10-15T15:13:31;7.53;;;0.93;;
19221;SDS011;9745;50.828;4.378;2022-10-15T15:16:02;3.60;;;0.70;;
19221;SDS011;9745;50.828;4.378;2022-10-15T15:18:28;3.40;;;0.70;;
19221;SDS011;9745;50.828;4.378;2022-10-15T15:20:54;5.17;;;1.40;;
19221;SDS011;9745;50.828;4.378;2022-10-15T15:23:23;4.10;;;0.80;;
19221;SDS011;9745;50.828;4.378;2022-10-15T15:25:50;4.10;;;1.20;;
19221;SDS011;9745;50.828;4.378;2022-10-15T15:28:20;5.40;;;0.97;;
19221;SDS011;9745;50.828;4.378;2022-10-15T15:30:53;7.53;;;1.23;;
19221;SDS011;9745;50.828;4.378;2022-10-15T15:33:20;1.67;;;0.80;;
19221;SDS011;9745;50.828;4.378;2022-10-15T15:35:47;4.57;;;1.00;;
19221;SDS011;9745;50.828;4.378;2022-10-15T15:38:18;2.37;;;0.70;;
19221;SDS011;9745;50.828;4.378;2022-10-15T15:40:44;4.13;;;0.80;;
19221;SDS011;9745;50.828;4.378;2022-10-15T15:43:14;3.87;;;0.90;;
19221;SDS011;9745;50.828;4.378;2022-10-15T15:45:40;3.23;;;1.00;;
19221;SDS011;9745;50.828;4.378;2022-10-15T15:48:06;3.33;;;0.80;;
19221;SDS011;9745;50.828;4.378;2022-10-15T15:50:32;4.23;;;1.00;;
19221;SDS011;9745;50.828;4.378;2022-10-15T15:52:59;3.37;;;1.30;;
19221;SDS011;9745;50.828;4.378;2022-10-15T15:55:25;3.73;;;1.13;;
19221;SDS011;9745;50.828;4.378;2022-10-15T15:57:51;4.97;;;1.03;;
19221;SDS011;9745;50.828;4.378;2022-10-15T16:00:17;4.57;;;1.07;;
19221;SDS011;9745;50.828;4.378;2022-10-15T16:02:43;3.57;;;1.40;;
19221;SDS011;9745;50.828;4.378;2022-10-15T16:05:11;6.37;;;2.87;;
19221;SDS011;9745;50.828;4.378;2022-10-15T16:07:37;6.43;;;1.67;;
19221;SDS011;9745;50.828;4.378;2022-10-15T16:10:04;6.47;;;1.50;;
19221;SDS011;9745;50.828;4.378;2022-10-15T16:12:33;5.70;;;1.53;;
19221;SDS011;9745;50.828;4.378;2022-10-15T16:14:59;6.20;;;1.20;;
19221;SDS011;9745;50.828;4.378;2022-10-15T16:17:25;3.27;;;1.10;;
19221;SDS011;9745;50.828;4.378;2022-10-15T16:19:51;3.93;;;1.20;;
19221;SDS011;9745;50.828;4.378;2022-10-15T16:22:17;1.90;;;1.00;;
19221;SDS011;9745;50.828;4.378;2022-10-15T16:24:43;6.47;;;1.67;;
19221;SDS011;9745;50.828;4.378;2022-10-15T16:27:09;7.23;;;1.17;;
19221;SDS011;9745;50.828;4.378;2022-10-15T16:29:36;6.13;;;1.17;;
19221;SDS011;9745;50.828;4.378;2022-10-15T16:32:02;4.27;;;1.37;;